LFRD/DNR METAR and TAF weather

Enter ICAO airport designator
Station Type Date Time Source
LFRD METAR 2019/12/14 17:00 UTC NOAA

LFRD 141700Z AUTO 20012KT 9999 FEW048 SCT062 OVC160 10/05 Q0999 TEMPO SHRA BECMG 19015G25KT


Station Type Date Time Source
LFRD Decoded METAR 2019/12/14 17:00 UTC NOAA

Dinard, France (LFRD) 48-35N 002-04W 60M
Dec 14, 2019 - 12:00 PM EST / 2019.12.14 1700 UTC
Wind: from the SSW (200 degrees) at 14 MPH (12 KT):0
Visibility: greater than 7 mile(s):0
Sky conditions: overcast
Temperature: 50 F (10 C)
Dew Point: 41 F (5 C)
Relative Humidity: 71%
Pressure (altimeter): 29.50 in. Hg (0999 hPa)
ob: LFRD 141700Z AUTO 20012KT 9999 FEW048 SCT062 OVC160 10/05 Q0999 TEMPO SHRA BECMG 19015G25KT
cycle: 17

Station Type Date Time Source
LFRD TAF 2019/12/14 18:21 UTC NOAA

TAF LFRD 141700Z 1418/1518 18012KT 9999 BKN030
TEMPO 1418/1420 18015G25KT
BECMG 1420/1422 21015G25KT
TEMPO 1421/1501 24020G35KT 4000 SHRA BKN012TCU
BECMG 1502/1504 22010KT

Example: see airport list